This is the latest recevied weather packets stored in our database for station/object OE3EMC-13. If no packets are shown the sender has not sent any weather packets the latest 10 day(s).
| Time | Temp. | Humidity | Pressure | Rain* | Wind** | Luminosity | Snow |
|---|---|---|---|---|---|---|---|
| 1777667594 | 5° C | 73% | 1100 hPa | 0 mm | - | - | - |
| 1777666992 | 5° C | 73% | 1100 hPa | 0 mm | - | - | - |
| 1777666392 | 5.56° C | 74% | 1100 hPa | 0 mm | - | - | - |
| 1777665792 | 5.56° C | 74% | 1100 hPa | 0 mm | - | - | - |
| 1777665192 | 5.56° C | 72% | 1100 hPa | 0 mm | - | - | - |
| 1777664592 | 5.56° C | 72% | 1100 hPa | 0 mm | - | - | - |
| 1777663993 | 6.67° C | 70% | 1100 hPa | 0 mm | - | - | - |
| 1777663391 | 6.67° C | 70% | 1100 hPa | 0 mm | - | - | - |
| 1777662792 | 7.22° C | 66% | 1100 hPa | 0 mm | - | - | - |
| 1777662191 | 7.22° C | 66% | 1100 hPa | 0 mm | - | - | - |
| 1777661592 | 8.33° C | 64% | 1100 hPa | 0 mm | - | - | - |
| 1777660991 | 8.33° C | 64% | 1100 hPa | 0 mm | - | - | - |
| 1777660391 | 11.11° C | 56% | 1100 hPa | 0 mm | - | - | - |
| 1777659790 | 11.11° C | 56% | 1100 hPa | 0 mm | - | - | - |
| 1777659192 | 13.33° C | 50% | 1100 hPa | 0 mm | - | - | - |
| 1777658590 | 13.33° C | 50% | 1100 hPa | 0 mm | - | - | - |
| 1777657990 | 15° C | 45% | 1100 hPa | 0 mm | - | - | - |
| 1777657391 | 15° C | 45% | 1100 hPa | 0 mm | - | - | - |
| 1777656790 | 17.22° C | 41% | 1100 hPa | 0 mm | - | - | - |
| 1777656190 | 17.22° C | 41% | 1100 hPa | 0 mm | - | - | - |
| 1777655599 | 18.33° C | 39% | 1100 hPa | 0 mm | - | - | - |
| 1777654989 | 18.33° C | 39% | 1100 hPa | 0 mm | - | - | - |
| 1777654394 | 19.44° C | 38% | 1100 hPa | 0 mm | - | - | - |
| 1777653795 | 19.44° C | 38% | 1100 hPa | 0 mm | - | - | - |
| 1777653194 | 19.44° C | 37% | 1100 hPa | 0 mm | - | - | - |
* Rain latest hour (hover to see other rain measurements)
** Current wind speed in m/s (hover to see current wind gust speed)